Weather at Mount Pleasant Municipal Airport

Public forecast

Using degrees Fahrenheit for public forecast. Weather courtesy of forecast.io.

Current aviation weather report (METAR) for Mount Pleasant Municipal Airport

Retrieved 2020/10/22 20:35 UTC (0 seconds ago):

KMOP 222035Z AUTO 07004KT 2 1/2SM BR OVC005 09/09 A3008 RMK AO2 T00880088

Closest aviation forecast (TAF) to Mount Pleasant Municipal Airport

Closest forecast is MBS International Airport, 29.1 nm (53.9 km) E. Retrieved 2020/10/22 18:24 UTC (2 hours ago):

TAF KMBS 221721Z 2218/2318 06010KT P6SM BKN008 OVC014 FM222100 10008KT 5SM BR OVC006 FM230000 11005KT 2SM BR OVC004 FM230500 20012KT P6SM SCT018 BKN040 WS010/23045KT FM231000 21014KT P6SM BKN022 FM231600 22015G30KT P6SM BKN028 OVC045